createdAt,value
2019-02-21T00:03:35.464Z,2.47
2019-02-21T00:08:40.460Z,2.67
2019-02-21T00:13:46.626Z,3.33
2019-02-21T00:18:51.369Z,3.40
2019-02-21T00:23:55.590Z,3.13
2019-02-21T00:29:00.040Z,2.77
2019-02-21T00:34:05.493Z,2.60
2019-02-21T00:39:09.742Z,2.80
2019-02-21T00:44:15.793Z,2.90
2019-02-21T00:49:20.065Z,2.60
2019-02-21T00:54:24.309Z,3.10
2019-02-21T00:59:28.954Z,2.70
2019-02-21T01:04:34.279Z,2.83
2019-02-21T01:09:39.254Z,3.20
2019-02-21T01:14:44.713Z,2.77
2019-02-21T01:19:48.950Z,2.90
2019-02-21T01:24:53.219Z,2.50
2019-02-21T01:29:57.523Z,2.80
2019-02-21T01:35:01.732Z,3.20
2019-02-21T01:40:07.002Z,2.90
2019-02-21T01:45:12.165Z,2.90
2019-02-21T01:50:16.398Z,2.70
2019-02-21T01:55:20.626Z,2.93
2019-02-21T02:00:25.386Z,2.57
2019-02-21T02:05:30.929Z,2.63
2019-02-21T02:10:35.150Z,3.00
2019-02-21T02:15:40.717Z,2.90
2019-02-21T02:20:45.695Z,2.40
2019-02-21T02:25:50.750Z,3.20
2019-02-21T02:30:54.969Z,2.60
2019-02-21T02:35:59.181Z,3.23
2019-02-21T02:41:04.281Z,2.50
2019-02-21T02:46:08.518Z,2.63
2019-02-21T02:51:12.949Z,3.10
2019-02-21T02:56:17.569Z,2.97
2019-02-21T03:01:34.029Z,2.70
2019-02-21T03:06:28.359Z,2.80
2019-02-21T03:11:32.734Z,2.93
2019-02-21T03:16:38.167Z,2.90
2019-02-21T03:21:44.373Z,3.30
2019-02-21T03:26:49.918Z,3.17
2019-02-21T03:31:56.110Z,2.83
2019-02-21T03:37:00.733Z,2.80
2019-02-21T03:42:05.717Z,3.40
2019-02-21T03:47:09.897Z,2.60
2019-02-21T03:52:14.202Z,3.03
2019-02-21T03:57:18.452Z,2.93
2019-02-21T04:02:22.616Z,3.07
2019-02-21T04:07:26.850Z,2.67
2019-02-21T04:12:32.144Z,2.57
2019-02-21T04:17:36.390Z,3.30
2019-02-21T04:22:40.595Z,3.27
2019-02-21T04:27:44.925Z,2.70
2019-02-21T04:32:49.166Z,2.50
2019-02-21T04:37:53.382Z,3.00
2019-02-21T04:42:57.662Z,2.70
2019-02-21T04:48:01.838Z,2.80
2019-02-21T04:53:06.104Z,2.80
2019-02-21T04:58:10.362Z,2.80
2019-02-21T05:03:14.587Z,3.03
2019-02-21T05:08:18.842Z,3.30
2019-02-21T05:13:23.127Z,3.00
2019-02-21T05:18:28.498Z,3.90
2019-02-21T05:23:33.515Z,2.73
2019-02-21T05:28:41.283Z,3.10
2019-02-21T05:33:54.227Z,3.63
2019-02-21T05:39:08.690Z,3.20
2019-02-21T05:44:20.403Z,3.20
2019-02-21T05:49:45.867Z,3.30
2019-02-21T05:55:18.144Z,3.00
2019-02-21T06:00:37.081Z,2.90
2019-02-21T06:05:49.164Z,3.30
2019-02-21T06:11:04.364Z,3.43
2019-02-21T06:16:19.840Z,3.20
2019-02-21T06:21:39.331Z,2.77
2019-02-21T06:26:58.004Z,3.30
2019-02-21T06:32:13.608Z,3.63
2019-02-21T06:37:08.437Z,3.30
2019-02-21T06:42:12.657Z,3.20
2019-02-21T06:47:16.962Z,3.93
2019-02-21T06:52:21.219Z,3.00
2019-02-21T06:57:27.173Z,3.63
2019-02-21T07:02:31.370Z,3.67
2019-02-21T07:07:35.623Z,3.00
2019-02-21T07:12:39.860Z,3.53
2019-02-21T07:17:49.441Z,3.67
2019-02-21T07:22:51.414Z,3.37
2019-02-21T07:27:58.190Z,3.43
2019-02-21T07:33:04.868Z,3.53
2019-02-21T07:38:09.244Z,4.10
2019-02-21T07:43:13.470Z,4.20
2019-02-21T07:48:17.656Z,5.20
2019-02-21T07:53:22.066Z,5.83
2019-02-21T07:58:26.354Z,5.83
2019-02-21T08:03:43.487Z,5.20
2019-02-21T08:08:36.667Z,7.17
2019-02-21T08:13:40.888Z,7.70
2019-02-21T08:18:45.417Z,9.43
2019-02-21T08:23:51.122Z,10.07
2019-02-21T08:28:58.060Z,11.67
2019-02-21T08:34:13.657Z,11.13
2019-02-21T08:39:19.648Z,10.57
2019-02-21T08:44:28.561Z,9.93
2019-02-21T08:49:31.827Z,10.60
2019-02-21T08:54:36.165Z,11.77
2019-02-21T08:59:42.385Z,9.97
2019-02-21T09:04:46.880Z,11.93
2019-02-21T09:09:53.294Z,11.47
2019-02-21T09:14:57.813Z,16.50
2019-02-21T09:20:02.371Z,12.50
2019-02-21T09:25:08.054Z,10.83
2019-02-21T09:30:14.754Z,14.63
2019-02-21T09:35:18.949Z,14.80
2019-02-21T09:40:24.762Z,15.40
2019-02-21T09:45:29.342Z,14.57
2019-02-21T09:50:33.599Z,15.88
2019-02-21T09:55:38.105Z,15.68
2019-02-21T10:00:42.814Z,15.00
2019-02-21T10:05:49.861Z,15.80
2019-02-21T10:10:56.181Z,15.78
2019-02-21T10:16:03.954Z,16.03
2019-02-21T10:21:09.542Z,21.12
2019-02-21T10:26:14.090Z,15.33
2019-02-21T10:31:19.627Z,18.00
2019-02-21T10:36:23.803Z,9.93
2019-02-21T10:41:28.099Z,12.55
2019-02-21T10:46:32.598Z,11.93
2019-02-21T10:51:37.133Z,14.33
2019-02-21T10:56:41.602Z,11.47
2019-02-21T11:01:47.506Z,10.50
2019-02-21T11:06:53.898Z,10.70
2019-02-21T11:11:59.849Z,12.97
2019-02-21T11:17:04.496Z,11.37
2019-02-21T11:22:10.483Z,11.50
2019-02-21T11:27:15.006Z,9.80
2019-02-21T11:32:20.999Z,8.80
2019-02-21T11:37:25.570Z,8.67
2019-02-21T11:42:31.328Z,10.87
2019-02-21T11:47:35.785Z,14.27
2019-02-21T11:52:41.418Z,14.57
2019-02-21T11:57:45.623Z,14.78
2019-02-21T12:02:51.209Z,18.25
2019-02-21T12:07:55.609Z,18.90
2019-02-21T12:13:01.975Z,16.83
2019-02-21T12:18:06.540Z,17.50
2019-02-21T12:23:12.435Z,16.30
2019-02-21T12:28:16.618Z,12.65
2019-02-21T12:33:22.174Z,15.45
2019-02-21T12:38:26.875Z,11.97
2019-02-21T12:43:32.232Z,11.38
2019-02-21T12:48:38.337Z,11.25
2019-02-21T12:53:43.004Z,11.80
2019-02-21T12:58:47.213Z,10.45
2019-02-21T13:03:53.025Z,9.93
2019-02-21T13:08:57.303Z,10.93
2019-02-21T13:14:02.586Z,10.30
2019-02-21T13:19:07.247Z,10.87
2019-02-21T13:24:13.423Z,9.87
2019-02-21T13:29:17.641Z,9.38
2019-02-21T13:34:23.095Z,9.47
2019-02-21T13:39:27.305Z,9.45
2019-02-21T13:44:31.526Z,9.45
2019-02-21T13:49:35.854Z,10.55
2019-02-21T13:54:40.379Z,11.27
2019-02-21T13:59:44.615Z,9.68
2019-02-21T14:04:49.084Z,8.00
2019-02-21T14:09:53.542Z,8.77
2019-02-21T14:14:59.265Z,8.73
2019-02-21T14:20:06.155Z,8.37
2019-02-21T14:25:10.629Z,9.00
2019-02-21T14:30:15.943Z,8.40
2019-02-21T14:35:20.508Z,8.63
2019-02-21T14:40:24.985Z,8.70
2019-02-21T14:45:30.423Z,7.03
2019-02-21T14:50:36.064Z,7.83
2019-02-21T14:55:40.800Z,7.33
2019-02-21T15:00:45.007Z,7.97
2019-02-21T15:05:49.642Z,6.93
2019-02-21T15:10:55.341Z,8.50
2019-02-21T15:16:01.115Z,7.20
2019-02-21T15:21:05.719Z,6.63
2019-02-21T15:26:10.024Z,7.67
2019-02-21T15:31:14.440Z,7.85
2019-02-21T15:36:20.102Z,8.30
2019-02-21T15:41:24.400Z,7.85
2019-02-21T15:46:28.892Z,8.03
2019-02-21T15:51:34.056Z,8.40
2019-02-21T15:56:38.298Z,7.65
2019-02-21T16:01:47.655Z,7.80
2019-02-21T16:06:52.021Z,8.30
2019-02-21T16:11:56.795Z,8.23
2019-02-21T16:17:01.427Z,7.47
2019-02-21T16:22:05.700Z,7.80
2019-02-21T16:27:10.040Z,8.15
2019-02-21T16:32:14.459Z,8.15
2019-02-21T16:37:18.795Z,8.08
2019-02-21T16:42:24.950Z,8.15
2019-02-21T16:47:29.740Z,7.85
2019-02-21T16:52:36.668Z,7.35
2019-02-21T16:57:40.851Z,7.25
2019-02-21T17:02:46.194Z,7.58
2019-02-21T17:07:50.467Z,7.15
2019-02-21T17:12:55.558Z,6.90
2019-02-21T17:18:03.639Z,7.92
2019-02-21T17:23:10.403Z,7.22
2019-02-21T17:28:15.016Z,7.73
2019-02-21T17:33:20.498Z,6.70
2019-02-21T17:38:24.809Z,6.35
2019-02-21T17:43:29.892Z,6.73
2019-02-21T17:48:34.835Z,7.00
2019-02-21T17:53:39.139Z,5.67
2019-02-21T17:58:43.799Z,7.27
2019-02-21T18:03:48.908Z,6.80
2019-02-21T18:08:55.210Z,6.42
2019-02-21T18:14:04.215Z,7.10
2019-02-21T18:19:08.677Z,6.87
2019-02-21T18:24:13.482Z,6.67
2019-02-21T18:29:17.699Z,7.20
2019-02-21T18:34:23.098Z,6.73
2019-02-21T18:39:27.767Z,6.87
2019-02-21T18:44:33.220Z,7.30
2019-02-21T18:49:38.742Z,7.37
2019-02-21T18:54:43.333Z,7.87
2019-02-21T18:59:47.891Z,6.93
2019-02-21T19:04:53.087Z,8.43
2019-02-21T19:09:57.715Z,7.67
2019-02-21T19:15:03.268Z,8.20
2019-02-21T19:20:08.632Z,8.43
2019-02-21T19:25:13.816Z,8.50
2019-02-21T19:30:20.172Z,8.95
2019-02-21T19:35:27.263Z,9.10
2019-02-21T19:40:31.583Z,8.58
2019-02-21T19:45:36.324Z,8.87
2019-02-21T19:50:40.539Z,9.78
2019-02-21T19:55:45.027Z,8.60
2019-02-21T20:00:49.231Z,9.68
2019-02-21T20:05:54.834Z,9.73
2019-02-21T20:10:59.143Z,10.28
2019-02-21T20:16:04.938Z,10.80
2019-02-21T20:21:09.159Z,10.35
2019-02-21T20:26:18.263Z,9.20
2019-02-21T20:31:20.645Z,10.87
2019-02-21T20:36:26.138Z,9.75
2019-02-21T20:41:30.791Z,9.90
2019-02-21T20:46:36.640Z,10.50
2019-02-21T20:56:55.478Z,11.47
2019-02-21T21:01:59.683Z,9.80
2019-02-21T21:07:05.105Z,11.08
2019-02-21T21:12:11.518Z,10.70
2019-02-21T21:17:16.816Z,10.10
2019-02-21T21:22:21.305Z,10.50
2019-02-21T21:27:26.867Z,9.47
2019-02-21T21:32:31.387Z,9.97
2019-02-21T21:37:35.767Z,8.53
2019-02-21T21:42:41.080Z,7.67
2019-02-21T21:47:45.581Z,7.73
2019-02-21T21:52:49.783Z,8.57
2019-02-21T21:57:55.669Z,11.03
2019-02-21T22:03:01.295Z,8.03
2019-02-21T22:08:06.110Z,9.10
2019-02-21T22:13:11.884Z,13.77
2019-02-21T22:18:16.369Z,10.07
2019-02-21T22:23:21.918Z,12.37
2019-02-21T22:28:26.453Z,13.35
2019-02-21T22:33:32.500Z,13.47
2019-02-21T22:38:37.072Z,13.60
2019-02-21T22:43:44.426Z,16.43
2019-02-21T22:48:49.165Z,15.63
2019-02-21T22:53:53.648Z,15.87
2019-02-21T22:58:57.847Z,15.93
2019-02-21T23:04:20.062Z,15.80
2019-02-21T23:09:27.948Z,17.30
2019-02-21T23:14:33.942Z,15.70
2019-02-21T23:19:38.161Z,16.80
2019-02-21T23:24:43.910Z,15.97
2019-02-21T23:29:48.118Z,16.40
2019-02-21T23:34:55.605Z,17.00
2019-02-21T23:39:59.804Z,16.63
2019-02-21T23:45:05.278Z,15.00
2019-02-21T23:50:09.748Z,16.57
2019-02-21T23:55:13.924Z,16.73
